createdAt,value
2018-08-23T00:00:37.229Z,60.30
2018-08-23T00:03:15.635Z,60.70
2018-08-23T00:05:49.554Z,64.63
2018-08-23T00:08:17.792Z,59.80
2018-08-23T00:10:46.307Z,55.30
2018-08-23T00:13:14.610Z,66.10
2018-08-23T00:15:42.782Z,55.93
2018-08-23T00:18:11.002Z,83.07
2018-08-23T00:20:39.219Z,52.20
2018-08-23T00:23:07.899Z,56.97
2018-08-23T00:25:37.645Z,52.37
2018-08-23T00:28:06.286Z,61.43
2018-08-23T00:30:34.893Z,57.10
2018-08-23T00:33:04.082Z,59.90
2018-08-23T00:35:33.075Z,61.53
2018-08-23T00:38:01.841Z,63.20
2018-08-23T00:40:30.087Z,55.40
2018-08-23T00:43:04.330Z,56.60
2018-08-23T00:45:32.530Z,66.37
2018-08-23T00:48:00.827Z,54.90
2018-08-23T00:51:02.465Z,58.30
2018-08-23T00:53:34.936Z,65.40
2018-08-23T00:56:23.057Z,59.20
2018-08-23T00:58:54.842Z,60.40
2018-08-23T01:01:23.047Z,65.43
2018-08-23T01:03:51.663Z,65.97
2018-08-23T01:06:22.856Z,58.07
2018-08-23T01:08:51.075Z,60.43
2018-08-23T01:11:19.288Z,62.10
2018-08-23T01:13:47.579Z,63.10
2018-08-23T01:16:16.094Z,62.23
2018-08-23T01:18:44.303Z,67.57
2018-08-23T01:21:12.521Z,76.43
2018-08-23T01:23:42.707Z,69.27
2018-08-23T01:26:10.943Z,57.17
2018-08-23T01:28:39.144Z,73.80
2018-08-23T01:31:22.832Z,56.80
2018-08-23T01:33:55.617Z,67.93
2018-08-23T01:36:39.380Z,74.10
2018-08-23T01:39:09.468Z,62.20
2018-08-23T01:41:37.661Z,60.83
2018-08-23T01:44:05.888Z,52.87
2018-08-23T01:46:41.372Z,54.57
2018-08-23T01:49:09.643Z,61.80
2018-08-23T01:51:37.895Z,63.33
2018-08-23T01:54:06.118Z,65.93
2018-08-23T01:56:34.343Z,63.87
2018-08-23T01:59:02.882Z,57.83
2018-08-23T02:01:31.094Z,69.20
2018-08-23T02:03:59.310Z,60.77
2018-08-23T02:06:32.862Z,68.83
2018-08-23T02:09:01.103Z,81.50
2018-08-23T02:11:29.302Z,68.13
2018-08-23T02:13:57.541Z,71.67
2018-08-23T02:16:25.793Z,68.90
2018-08-23T02:18:54.009Z,72.30
2018-08-23T02:21:22.231Z,83.13
2018-08-23T02:23:52.282Z,83.63
2018-08-23T02:26:20.486Z,75.47
2018-08-23T02:28:49.770Z,79.47
2018-08-23T02:31:18.558Z,62.17
2018-08-23T02:33:46.857Z,83.23
2018-08-23T02:36:18.363Z,65.23
2018-08-23T02:38:48.410Z,70.03
2018-08-23T02:41:16.942Z,73.60
2018-08-23T02:43:45.631Z,73.90
2018-08-23T02:46:13.864Z,79.97
2018-08-23T02:48:42.056Z,75.53
2018-08-23T02:51:10.247Z,77.10
2018-08-23T02:53:40.595Z,80.70
2018-08-23T02:56:10.993Z,72.37
2018-08-23T02:58:48.868Z,66.70
2018-08-23T03:01:17.067Z,72.93
2018-08-23T03:04:00.130Z,67.07
2018-08-23T03:06:49.397Z,97.03
2018-08-23T03:09:26.391Z,84.27
2018-08-23T03:11:55.828Z,74.13
2018-08-23T03:14:24.995Z,85.83
2018-08-23T03:17:34.080Z,73.03
2018-08-23T03:20:23.156Z,89.13
2018-08-23T03:22:53.314Z,97.43
2018-08-23T03:25:22.531Z,100.00
2018-08-23T03:27:51.979Z,106.23
2018-08-23T03:30:20.603Z,86.00
2018-08-23T03:32:48.835Z,95.33
2018-08-23T03:35:17.102Z,91.57
2018-08-23T03:37:45.342Z,101.20
2018-08-23T03:40:14.625Z,108.47
2018-08-23T03:42:42.925Z,105.93
2018-08-23T03:45:16.677Z,103.83
2018-08-23T03:47:55.187Z,104.17
2018-08-23T03:50:23.490Z,125.43
2018-08-23T03:52:53.866Z,123.83
2018-08-23T03:55:23.375Z,123.53
2018-08-23T03:57:52.757Z,127.30
2018-08-23T04:00:26.751Z,122.63
2018-08-23T04:02:55.150Z,127.43
2018-08-23T04:05:23.393Z,121.70
2018-08-23T04:07:51.613Z,131.50
2018-08-23T04:10:19.835Z,129.07
2018-08-23T04:12:48.110Z,101.87
2018-08-23T04:15:19.321Z,118.43
2018-08-23T04:17:48.217Z,106.83
2018-08-23T04:20:16.583Z,110.50
2018-08-23T04:22:44.893Z,119.33
2018-08-23T04:25:13.111Z,104.53
2018-08-23T04:27:41.334Z,79.73
2018-08-23T04:30:09.972Z,74.33
2018-08-23T04:32:41.207Z,77.97
2018-08-23T04:35:11.469Z,72.60
2018-08-23T04:37:39.765Z,74.80
2018-08-23T04:40:08.735Z,73.83
2018-08-23T04:42:37.043Z,81.57
2018-08-23T04:45:09.939Z,81.83
2018-08-23T04:47:45.376Z,84.43
2018-08-23T04:50:13.855Z,87.53
2018-08-23T04:52:42.336Z,88.27
2018-08-23T04:55:10.589Z,69.37
2018-08-23T04:57:38.832Z,109.00
2018-08-23T05:00:07.506Z,105.13
2018-08-23T05:02:35.783Z,97.47
2018-08-23T05:05:04.087Z,113.97
2018-08-23T05:07:32.325Z,111.70
2018-08-23T05:10:01.116Z,100.53
2018-08-23T05:12:29.332Z,108.80
2018-08-23T05:14:57.613Z,109.97
2018-08-23T05:17:26.315Z,136.73
2018-08-23T05:19:54.558Z,104.93
2018-08-23T05:22:22.767Z,128.10
2018-08-23T05:24:52.803Z,113.37
2018-08-23T05:27:21.011Z,108.90
2018-08-23T05:29:49.679Z,121.13
2018-08-23T05:32:17.879Z,113.70
2018-08-23T05:34:46.140Z,115.57
2018-08-23T05:37:14.448Z,98.70
2018-08-23T05:39:51.227Z,98.53
2018-08-23T05:42:30.888Z,94.23
2018-08-23T05:44:59.305Z,100.80
2018-08-23T05:47:27.655Z,116.90
2018-08-23T05:49:55.962Z,104.50
2018-08-23T05:52:24.174Z,99.87
2018-08-23T05:54:52.554Z,93.97
2018-08-23T05:57:20.786Z,92.80
2018-08-23T05:59:49.035Z,91.30
2018-08-23T06:02:17.275Z,99.67
2018-08-23T06:04:45.521Z,96.07
2018-08-23T06:07:13.720Z,98.23
2018-08-23T06:09:48.613Z,91.67
2018-08-23T06:12:16.851Z,94.47
2018-08-23T06:14:45.287Z,87.70
2018-08-23T06:17:13.505Z,83.97
2018-08-23T06:19:42.126Z,80.47
2018-08-23T06:22:10.349Z,81.73
2018-08-23T06:24:38.570Z,86.33
2018-08-23T06:27:06.762Z,79.30
2018-08-23T06:29:35.555Z,83.37
2018-08-23T06:32:08.035Z,87.90
2018-08-23T06:34:46.212Z,80.30
2018-08-23T06:37:14.950Z,83.63
2018-08-23T06:39:43.366Z,72.53
2018-08-23T06:42:11.574Z,75.90
2018-08-23T06:44:45.489Z,80.90
2018-08-23T06:47:20.024Z,73.30
2018-08-23T06:49:49.509Z,60.30
2018-08-23T06:52:49.765Z,77.90
2018-08-23T06:55:23.233Z,73.57
2018-08-23T06:57:55.689Z,57.33
2018-08-23T07:00:26.336Z,69.30
2018-08-23T07:02:54.600Z,74.17
2018-08-23T07:05:23.076Z,70.10
2018-08-23T07:07:51.585Z,62.40
2018-08-23T07:10:19.776Z,69.50
2018-08-23T07:12:48.119Z,70.50
2018-08-23T07:15:16.464Z,54.87
2018-08-23T07:17:44.919Z,52.43
2018-08-23T07:20:14.998Z,67.97
2018-08-23T07:22:43.280Z,69.47
2018-08-23T07:25:13.110Z,73.77
2018-08-23T07:27:41.360Z,60.50
2018-08-23T07:30:13.628Z,60.40
2018-08-23T07:32:42.707Z,61.23
2018-08-23T07:35:11.849Z,54.83
2018-08-23T07:37:41.363Z,63.07
2018-08-23T07:40:18.672Z,70.00
2018-08-23T07:42:48.267Z,66.73
2018-08-23T07:45:16.697Z,63.00
2018-08-23T07:47:47.180Z,64.97
2018-08-23T07:50:15.482Z,69.20
2018-08-23T07:52:46.226Z,64.87
2018-08-23T07:55:14.436Z,71.77
2018-08-23T07:57:43.025Z,56.33
2018-08-23T08:00:37.159Z,66.50
2018-08-23T08:10:29.557Z,64.00
2018-08-23T08:12:57.843Z,68.70
2018-08-23T08:15:26.063Z,84.40
2018-08-23T08:17:54.284Z,86.90
2018-08-23T08:20:22.520Z,78.27
2018-08-23T08:22:50.812Z,67.70
2018-08-23T08:25:19.823Z,83.73
2018-08-23T08:27:48.989Z,93.00
2018-08-23T08:30:19.434Z,88.23
2018-08-23T08:32:47.704Z,94.13
2018-08-23T08:35:19.142Z,80.30
2018-08-23T08:37:48.555Z,94.97
2018-08-23T08:40:23.711Z,101.20
2018-08-23T08:42:51.986Z,87.53
2018-08-23T08:45:20.403Z,88.27
2018-08-23T08:47:48.923Z,98.67
2018-08-23T08:50:17.211Z,91.53
2018-08-23T08:52:45.445Z,99.33
2018-08-23T08:55:15.299Z,86.47
2018-08-23T08:57:45.269Z,94.90
2018-08-23T09:00:13.491Z,93.27
2018-08-23T09:02:41.770Z,99.40
2018-08-23T09:05:10.855Z,93.97
2018-08-23T09:07:40.772Z,95.97
2018-08-23T09:10:09.038Z,105.43
2018-08-23T09:12:51.795Z,88.50
2018-08-23T09:15:20.200Z,90.40
2018-08-23T09:17:48.457Z,106.80
2018-08-23T09:20:18.698Z,85.10
2018-08-23T09:22:54.915Z,90.57
2018-08-23T09:25:28.437Z,95.40
2018-08-23T09:27:57.122Z,90.70
2018-08-23T09:30:30.482Z,90.53
2018-08-23T09:33:03.003Z,82.50
2018-08-23T09:35:32.202Z,92.17
2018-08-23T09:38:01.924Z,78.20
2018-08-23T09:40:30.383Z,80.77
2018-08-23T09:43:02.869Z,81.93
2018-08-23T09:45:32.537Z,61.87
2018-08-23T09:48:00.779Z,78.60
2018-08-23T09:50:29.089Z,71.63
2018-08-23T09:52:57.504Z,69.10
2018-08-23T09:55:29.375Z,86.77
2018-08-23T09:57:57.848Z,67.87
2018-08-23T10:00:31.477Z,78.50
2018-08-23T10:05:10.969Z,68.80
2018-08-23T10:07:44.428Z,73.90
2018-08-23T10:10:21.078Z,81.30
2018-08-23T10:12:54.696Z,75.27
2018-08-23T10:15:28.413Z,71.33
2018-08-23T10:18:02.115Z,68.93
2018-08-23T10:20:35.791Z,61.87
2018-08-23T10:23:09.503Z,60.60
2018-08-23T10:25:41.644Z,58.20
2018-08-23T10:28:11.105Z,62.67
2018-08-23T10:30:39.380Z,74.57
2018-08-23T10:33:07.671Z,63.40
2018-08-23T10:35:36.507Z,51.07
2018-08-23T10:38:05.137Z,51.00
2018-08-23T10:40:33.423Z,50.43
2018-08-23T10:43:01.695Z,41.60
2018-08-23T10:45:29.952Z,40.97
2018-08-23T10:48:03.627Z,54.87
2018-08-23T10:50:31.867Z,41.10
2018-08-23T10:53:00.100Z,54.63
2018-08-23T10:55:28.475Z,54.97
2018-08-23T10:57:56.718Z,53.97
2018-08-23T11:00:25.011Z,52.73
2018-08-23T11:02:53.196Z,52.80
2018-08-23T11:05:21.447Z,49.60
2018-08-23T11:07:55.006Z,53.33
2018-08-23T11:10:28.619Z,48.90
2018-08-23T11:13:02.191Z,41.80
2018-08-23T11:15:30.508Z,41.90
2018-08-23T11:18:04.236Z,29.77
2018-08-23T11:20:48.252Z,38.33
2018-08-23T11:23:18.762Z,31.90
2018-08-23T11:25:46.994Z,35.13
2018-08-23T11:28:21.338Z,37.90
2018-08-23T11:30:49.995Z,35.20
2018-08-23T11:33:18.244Z,36.90
2018-08-23T11:35:46.658Z,33.60
2018-08-23T11:38:14.900Z,36.67
2018-08-23T11:40:43.144Z,33.23
2018-08-23T11:43:11.374Z,34.17
2018-08-23T11:45:39.582Z,33.37
2018-08-23T11:48:07.852Z,37.47
2018-08-23T11:50:36.117Z,30.70
2018-08-23T11:53:04.357Z,32.60
2018-08-23T11:55:32.596Z,31.80
2018-08-23T11:58:00.854Z,35.27
2018-08-23T12:00:29.112Z,40.20
2018-08-23T12:02:57.359Z,30.37
2018-08-23T12:05:25.624Z,31.90
2018-08-23T12:07:54.844Z,27.40
2018-08-23T12:10:24.195Z,26.43
2018-08-23T12:12:53.799Z,33.60
2018-08-23T12:15:28.332Z,31.20
2018-08-23T12:17:57.005Z,34.73
2018-08-23T12:20:25.223Z,26.03
2018-08-23T12:22:53.499Z,33.80
2018-08-23T12:25:21.747Z,32.20
2018-08-23T12:27:56.380Z,33.50
2018-08-23T12:30:24.660Z,27.53
2018-08-23T12:32:52.975Z,28.13
2018-08-23T12:35:21.416Z,30.57
2018-08-23T12:38:02.435Z,27.47
2018-08-23T12:40:36.666Z,26.43
2018-08-23T12:43:07.648Z,25.20
2018-08-23T12:45:40.934Z,30.23
2018-08-23T12:48:10.539Z,27.87
2018-08-23T12:50:38.804Z,26.67
2018-08-23T12:53:07.046Z,28.13
2018-08-23T12:55:35.311Z,42.73
2018-08-23T12:58:04.760Z,31.40
2018-08-23T13:00:33.033Z,26.80
2018-08-23T13:03:01.315Z,22.90
2018-08-23T13:05:29.491Z,27.43
2018-08-23T13:07:57.797Z,24.97
2018-08-23T13:10:26.021Z,28.80
2018-08-23T13:12:54.263Z,44.53
2018-08-23T13:15:22.500Z,28.00
2018-08-23T13:17:50.718Z,33.93
2018-08-23T13:20:18.971Z,31.40
2018-08-23T13:22:47.182Z,30.83
2018-08-23T13:25:15.631Z,33.87
2018-08-23T13:27:44.008Z,28.70
2018-08-23T13:30:12.139Z,26.50
2018-08-23T13:32:40.356Z,26.60
2018-08-23T13:35:08.623Z,31.00
2018-08-23T13:37:36.907Z,31.63
2018-08-23T13:40:05.462Z,28.90
2018-08-23T13:42:33.704Z,29.17
2018-08-23T13:45:02.166Z,25.70
2018-08-23T13:47:30.452Z,24.47
2018-08-23T13:49:58.711Z,22.33
2018-08-23T13:52:26.926Z,24.80
2018-08-23T13:54:55.306Z,32.90
2018-08-23T13:57:23.538Z,28.67
2018-08-23T13:59:51.763Z,26.73
2018-08-23T14:02:20.007Z,25.57
2018-08-23T14:04:48.212Z,28.27
2018-08-23T14:07:16.484Z,24.63
2018-08-23T14:09:44.739Z,25.27
2018-08-23T14:12:12.967Z,24.73
2018-08-23T14:14:41.199Z,22.27
2018-08-23T14:17:09.467Z,21.03
2018-08-23T14:19:37.713Z,29.07
2018-08-23T14:22:05.947Z,21.90
2018-08-23T14:24:34.187Z,21.90
2018-08-23T14:27:02.442Z,30.30
2018-08-23T14:29:30.809Z,21.13
2018-08-23T14:31:59.445Z,28.43
2018-08-23T14:34:27.798Z,21.23
2018-08-23T14:36:56.168Z,25.90
2018-08-23T14:39:24.460Z,23.87
2018-08-23T14:41:52.710Z,22.80
2018-08-23T14:44:21.016Z,21.20
2018-08-23T14:46:54.491Z,22.30
2018-08-23T14:49:28.207Z,24.00
2018-08-23T14:51:56.446Z,21.70
2018-08-23T14:54:30.090Z,27.53
2018-08-23T14:57:36.158Z,25.07
2018-08-23T15:00:04.513Z,23.30
2018-08-23T15:02:32.791Z,22.83
2018-08-23T15:05:00.975Z,21.53
2018-08-23T15:07:29.257Z,24.03
2018-08-23T15:09:57.470Z,19.80
2018-08-23T15:12:25.868Z,20.37
2018-08-23T15:14:54.302Z,18.77
2018-08-23T15:17:22.545Z,20.03
2018-08-23T15:19:50.777Z,27.73
2018-08-23T15:22:18.992Z,17.70
2018-08-23T15:24:47.259Z,28.10
2018-08-23T15:27:15.545Z,20.47
2018-08-23T15:29:43.708Z,19.93
2018-08-23T15:32:11.959Z,28.77
2018-08-23T15:34:40.198Z,18.17
2018-08-23T15:37:08.406Z,16.40
2018-08-23T15:39:36.699Z,17.60
2018-08-23T15:42:04.947Z,16.70
2018-08-23T15:44:33.367Z,15.60
2018-08-23T15:47:01.618Z,15.20
2018-08-23T15:49:29.852Z,14.77
2018-08-23T15:51:58.174Z,19.13
2018-08-23T15:54:26.390Z,21.67
2018-08-23T15:56:54.625Z,11.67
2018-08-23T15:59:22.876Z,15.27
2018-08-23T16:01:51.103Z,15.47
2018-08-23T16:04:19.367Z,14.90
2018-08-23T16:06:47.570Z,17.53
2018-08-23T16:09:15.837Z,13.70
2018-08-23T16:11:44.085Z,11.60
2018-08-23T16:14:12.487Z,11.00
2018-08-23T16:16:45.993Z,13.17
2018-08-23T16:19:19.861Z,11.80
2018-08-23T16:21:53.403Z,11.53
2018-08-23T16:24:21.636Z,9.57
2018-08-23T16:26:55.179Z,17.83
2018-08-23T16:29:25.392Z,10.67
2018-08-23T16:31:53.641Z,11.07
2018-08-23T16:34:21.884Z,14.83
2018-08-23T16:36:50.135Z,18.57
2018-08-23T16:39:18.387Z,12.13
2018-08-23T16:41:46.870Z,12.73
2018-08-23T16:44:15.118Z,10.40
2018-08-23T16:46:43.403Z,9.87
2018-08-23T16:49:11.627Z,9.73
2018-08-23T16:51:39.842Z,9.60
2018-08-23T16:54:16.568Z,19.80
2018-08-23T16:56:46.408Z,8.07
2018-08-23T16:59:20.030Z,10.23
2018-08-23T17:01:57.562Z,10.40
2018-08-23T17:04:34.001Z,9.60
2018-08-23T17:07:06.599Z,12.30
2018-08-23T17:09:38.810Z,18.00
2018-08-23T17:12:08.445Z,12.60
2018-08-23T17:14:41.763Z,11.23
2018-08-23T17:17:19.700Z,8.60
2018-08-23T17:19:50.491Z,8.77
2018-08-23T17:22:25.114Z,12.40
2018-08-23T17:24:57.623Z,9.43
2018-08-23T17:27:26.054Z,8.87
2018-08-23T17:29:54.303Z,9.20
2018-08-23T17:32:22.547Z,9.40
2018-08-23T17:34:50.971Z,9.03
2018-08-23T17:37:19.196Z,10.73
2018-08-23T17:39:47.480Z,14.60
2018-08-23T17:42:15.683Z,14.17
2018-08-23T17:44:43.895Z,15.60
2018-08-23T17:47:12.215Z,14.53
2018-08-23T17:49:40.461Z,7.50
2018-08-23T17:52:08.695Z,9.10
2018-08-23T17:54:36.940Z,7.17
2018-08-23T17:57:05.203Z,9.90
2018-08-23T17:59:33.515Z,12.13
2018-08-23T18:02:01.728Z,13.77
2018-08-23T18:04:30.136Z,8.60
2018-08-23T18:06:58.416Z,11.27
2018-08-23T18:09:26.660Z,10.10
2018-08-23T18:11:54.928Z,5.00
2018-08-23T18:14:23.215Z,8.57
2018-08-23T18:16:56.857Z,15.33
2018-08-23T18:19:25.113Z,10.27
2018-08-23T18:21:53.679Z,5.40
2018-08-23T18:24:21.991Z,14.70
2018-08-23T18:26:50.208Z,5.40
2018-08-23T18:29:18.412Z,7.40
2018-08-23T18:31:46.651Z,8.07
2018-08-23T18:34:14.911Z,12.93
2018-08-23T18:36:43.299Z,6.40
2018-08-23T18:39:11.867Z,5.80
2018-08-23T18:41:40.730Z,5.63
2018-08-23T18:44:09.095Z,16.53
2018-08-23T18:46:37.355Z,6.63
2018-08-23T18:49:06.089Z,22.33
2018-08-23T18:51:35.019Z,9.93
2018-08-23T18:54:04.125Z,7.97
2018-08-23T18:56:34.048Z,12.33
2018-08-23T18:59:02.620Z,4.70
2018-08-23T19:01:31.399Z,10.13
2018-08-23T19:06:41.235Z,7.40
2018-08-23T19:09:13.012Z,5.30
2018-08-23T19:11:42.515Z,13.03
2018-08-23T19:14:11.386Z,6.70
2018-08-23T19:16:45.324Z,6.27
2018-08-23T19:19:13.966Z,13.20
2018-08-23T19:21:42.371Z,5.37
2018-08-23T19:24:10.758Z,5.77
2018-08-23T19:26:39.766Z,13.27
2018-08-23T19:29:08.354Z,7.33
2018-08-23T19:31:37.448Z,5.07
2018-08-23T19:34:06.421Z,6.00
2018-08-23T19:36:35.366Z,10.07
2018-08-23T19:39:05.846Z,5.47
2018-08-23T19:41:35.395Z,8.93
2018-08-23T19:44:04.277Z,5.73
2018-08-23T19:46:38.084Z,17.33
2018-08-23T19:49:11.990Z,9.30
2018-08-23T19:51:42.066Z,6.40
2018-08-23T19:54:10.650Z,4.63
2018-08-23T19:56:39.497Z,6.63
2018-08-23T19:59:08.270Z,6.90
2018-08-23T20:01:37.476Z,6.90
2018-08-23T20:04:06.519Z,9.83
2018-08-23T20:06:35.670Z,11.90
2018-08-23T20:09:06.092Z,11.03
2018-08-23T20:11:35.003Z,5.47
2018-08-23T20:14:04.012Z,6.20
2018-08-23T20:16:33.048Z,7.63
2018-08-23T20:19:01.764Z,6.20
2018-08-23T20:21:30.835Z,9.27
2018-08-23T20:23:59.059Z,6.43
2018-08-23T20:26:27.275Z,6.60
2018-08-23T20:28:55.543Z,6.03
2018-08-23T20:31:23.758Z,4.60
2018-08-23T20:33:51.980Z,5.27
2018-08-23T20:36:20.240Z,7.00
2018-08-23T20:38:50.072Z,4.57
2018-08-23T20:41:18.587Z,4.50
2018-08-23T20:43:47.121Z,17.17
2018-08-23T20:46:15.351Z,14.57
2018-08-23T20:48:43.684Z,4.23
2018-08-23T20:51:11.947Z,10.97
2018-08-23T20:53:40.765Z,9.80
2018-08-23T20:56:08.997Z,3.67
2018-08-23T20:58:37.996Z,5.40
2018-08-23T21:01:06.215Z,23.23
2018-08-23T21:03:34.843Z,7.47
2018-08-23T21:06:03.051Z,7.73
2018-08-23T21:08:31.333Z,3.73
2018-08-23T21:10:59.539Z,3.00
2018-08-23T21:13:27.811Z,12.73
2018-08-23T21:15:56.030Z,9.37
2018-08-23T21:18:24.259Z,8.37
2018-08-23T21:20:52.503Z,8.13
2018-08-23T21:23:20.761Z,8.40
2018-08-23T21:25:48.960Z,7.47
2018-08-23T21:28:17.193Z,11.23
2018-08-23T21:30:45.795Z,9.47
2018-08-23T21:33:14.020Z,5.37
2018-08-23T21:35:42.242Z,6.80
2018-08-23T21:38:10.406Z,7.43
2018-08-23T21:40:38.657Z,3.70
2018-08-23T21:43:06.989Z,6.13
2018-08-23T21:45:35.223Z,5.33
2018-08-23T21:48:03.430Z,6.20
2018-08-23T21:50:31.648Z,5.20
2018-08-23T21:52:59.871Z,6.60
2018-08-23T21:55:33.367Z,5.57
2018-08-23T21:58:01.644Z,6.00
2018-08-23T22:00:34.071Z,12.07
2018-08-23T22:03:02.299Z,11.70
2018-08-23T22:05:30.648Z,10.50
2018-08-23T22:07:58.871Z,15.37
2018-08-23T22:10:27.098Z,14.63
2018-08-23T22:12:55.336Z,14.97
2018-08-23T22:15:23.598Z,11.30
2018-08-23T22:17:51.754Z,11.80
2018-08-23T22:20:20.004Z,11.33
2018-08-23T22:22:48.236Z,11.47
2018-08-23T22:25:16.465Z,12.10
2018-08-23T22:27:44.690Z,9.97
2018-08-23T22:30:12.902Z,12.30
2018-08-23T22:32:41.166Z,12.83
2018-08-23T22:35:09.608Z,9.50
2018-08-23T22:37:37.841Z,10.03
2018-08-23T22:40:06.165Z,8.07
2018-08-23T22:42:34.383Z,9.43
2018-08-23T22:45:02.704Z,10.20
2018-08-23T22:47:30.904Z,10.03
2018-08-23T22:49:59.164Z,7.03
2018-08-23T22:52:27.338Z,6.67
2018-08-23T22:54:55.550Z,6.87
2018-08-23T22:57:23.815Z,7.90
2018-08-23T22:59:52.102Z,5.60
2018-08-23T23:02:25.691Z,7.13
2018-08-23T23:04:54.035Z,7.63
2018-08-23T23:07:22.259Z,6.47
2018-08-23T23:09:50.504Z,7.97
2018-08-23T23:12:18.718Z,6.53
2018-08-23T23:14:46.948Z,9.10
2018-08-23T23:17:21.555Z,7.30
2018-08-23T23:19:49.787Z,10.57
2018-08-23T23:22:18.006Z,10.60
2018-08-23T23:24:51.623Z,8.63
2018-08-23T23:27:19.894Z,7.80
2018-08-23T23:29:48.126Z,10.40
2018-08-23T23:32:16.360Z,8.83
2018-08-23T23:34:44.636Z,15.97
2018-08-23T23:37:12.882Z,12.63
2018-08-23T23:39:41.115Z,16.23
2018-08-23T23:42:09.344Z,12.73
2018-08-23T23:44:37.595Z,9.60
2018-08-23T23:47:05.759Z,16.60
2018-08-23T23:49:34.202Z,15.70
2018-08-23T23:52:02.401Z,8.80
2018-08-23T23:54:30.628Z,15.10
2018-08-23T23:56:58.854Z,12.20
2018-08-23T23:59:27.040Z,12.03
